Latest Coastal Weather Observations for Robe Airport

IDS60701

Issued at 12:41 pm CST Tuesday 30 August 2016 (issued every 10 minutes, with the page automatically refreshed every 10 minutes)

About coastal observations | Map of coastal stations | Coastal observations for SA | Marine services | Other Formats
Station Details ID: 026105 Name: ROBE AIRFIELD Lat: -37.18 Lon: 139.81 Height: 3.0 m
Data from the previous 72 hours. | See also: Recent months at Robe Airport
Date/Time
CST
Temp
°C
Wind Pressure Rain since
9am
mm
Weather Cloud Vis
km
Sea
Height
m
Swell
Dir  Spd
kts
Gust
kts
hPa Trend Height
m
Period
s
Dir
30/12:30pm 13.6 N 10 15 1010.8 - 2.8 - - - - - - -
30/12:00pm 13.5 NNE 8 12 1010.8 - 2.8 Recent precip. - - - - - -
30/11:30am 12.6 NNE 9 12 1011.7 - 2.6 - - - - - - -
30/11:00am 12.5 NNE 11 15 1012.3 - 0.6 - - - - - - -
30/10:30am 12.8 NNE 11 17 1012.1 - 0.6 - - - - - - -
30/10:00am 12.6 NNE 11 17 1012.5 - 0.6 - - - - - - -
30/09:30am 12.2 NNE 11 16 1012.9 - 0.2 - - - - - - -
30/09:00am 12.1 NNE 12 18 1012.8 - 5.0 - - - - - - -
30/08:30am 12.0 NE 11 15 1012.9 - 5.0 - - - - - - -
30/08:00am 11.9 NNE 14 19 1013.2 - 5.0 - - - - - - -
30/07:30am 11.9 NNE 12 16 1013.0 - 4.6 - - - - - - -
30/07:00am 11.8 NNE 12 18 1013.0 - 4.6 - - - - - - -
30/06:30am 11.8 NNE 14 18 1012.8 - 4.6 - - - - - - -
30/06:00am 11.8 NNE 13 21 1012.8 - 4.4 Recent precip. - - - - - -
30/05:30am 11.9 NNE 16 21 1013.1 - 4.2 - - - - - - -
30/05:00am 11.9 NNE 15 21 1013.3 - 3.6 - - - - - - -
30/04:30am 12.0 NNE 16 23 1013.1 - 2.8 - - - - - - -
30/04:00am 12.0 NNE 16 22 1013.1 - 2.2 - - - - - - -
30/03:30am 12.1 NNE 13 20 1013.2 - 1.2 - - - - - - -
30/03:00am 12.0 NNE 14 19 1013.0 - 1.0 Rain - - - - - -
30/02:30am 12.3 NNE 16 22 1013.3 - 0.2 - - - - - - -
30/02:00am 12.9 NNE 15 21 1013.7 - 0.2 - - - - - - -
30/01:30am 13.4 NNE 16 22 1013.9 - 0.2 - - - - - - -
30/01:00am 13.5 NNE 15 21 1014.3 - 0.2 - - - - - - -
30/12:30am 13.1 NNE 14 20 1014.7 - 0.2 - - - - - - -
30/12:00am 13.5 NNE 16 22 1014.8 - 0.2 Recent precip. - - - - - -
 
Date/Time
CST
Temp
°C
Wind Pressure Rain since
9am
mm
Weather Cloud Vis
km
Sea
Height
m
Swell
Dir  Spd
kts
Gust
kts
hPa Trend Height
m
Period
s
Dir
29/11:30pm 13.9 N 15 21 1015.1 - 0.0 - - - - - - -
29/11:00pm 14.9 N 18 25 1014.9 - 0.0 - - - - - - -
29/10:48pm 16.0 N 16 24 1014.7 - 0.0 - - - - - - -
29/10:30pm 15.1 NE 8 12 1014.0 - 0.0 - - - - - - -
29/10:00pm 15.0 NNE 6 9 1014.6 - 0.0 - - - - - - -
29/09:30pm 15.9 NNE 8 12 1014.8 - 0.0 - - - - - - -
29/09:00pm 16.2 NNE 10 13 1015.1 - 0.0 - - - - - - -
29/08:30pm 15.5 NE 8 11 1015.0 - 0.0 - - - - - - -
29/08:00pm 15.6 NE 7 9 1015.1 - 0.0 - - - - - - -
29/07:30pm 16.0 NNE 7 9 1014.9 - 0.0 - - - - - - -
29/07:00pm 16.6 NE 10 15 1014.4 - 0.0 - - - - - - -
29/06:30pm 16.2 ENE 10 13 1013.8 - 0.0 - - - - - - -
29/06:00pm 16.3 NE 9 12 1013.7 - 0.0 - - - - - - -
29/05:30pm 16.3 NE 8 11 1013.7 - 0.0 - - - - - - -
29/05:00pm 16.7 ENE 8 10 1013.4 - 0.0 - - - - - - -
29/04:30pm 17.4 NE 10 13 1013.9 - 0.0 - - - - - - -
29/04:00pm 17.9 NE 8 12 1014.0 - 0.0 - - - - - - -
29/03:30pm 17.4 NE 11 15 1013.8 - 0.0 - - - - - - -
29/03:00pm 17.2 NE 11 15 1014.5 - 0.0 - - - - - - -
29/02:30pm 16.9 NE 13 20 1014.6 - 0.0 - - - - - - -
29/02:00pm 16.4 NE 12 17 1015.1 - 0.0 - - - - - - -
29/01:30pm 15.7 NE 11 15 1015.3 - 0.0 - - - - - - -
29/01:00pm 15.8 NNE 11 15 1015.8 - 0.0 - - - - - - -
29/12:30pm 16.1 NE 11 16 1016.2 - 0.0 - - - - - - -
29/12:00pm 15.8 NNE 12 17 1016.7 - 0.0 - - - - - - -
29/11:30am 16.4 NNE 13 20 1017.1 - 0.0 - - - - - - -
29/11:00am 15.4 NNE 15 19 1017.1 - 0.0 - - - - - - -
29/10:30am 15.1 NE 13 19 1017.3 - 0.0 - - - - - - -
29/10:00am 15.3 NE 14 19 1017.5 - 0.0 - - - - - - -
29/09:30am 13.2 NE 12 16 1017.9 - 0.0 - - - - - - -
29/09:00am 12.7 NE 12 17 1018.2 - 0.0 - - - - - - -
29/08:30am 11.3 NE 10 13 1018.3 - 0.0 - - - - - - -
29/08:00am 10.9 NE 9 13 1018.3 - 0.0 - - - - - - -
29/07:30am 10.8 NE 9 14 1018.0 - 0.0 - - - - - - -
29/07:00am 10.3 NE 8 11 1017.6 - 0.0 - - - - - - -
29/06:30am 10.1 NE 8 10 1017.3 - 0.0 - - - - - - -
29/06:00am 10.2 NE 8 11 1017.2 - 0.0 - - - - - - -
29/05:30am 10.4 NE 8 11 1017.0 - 0.0 - - - - - - -
29/05:00am 10.6 NE 8 11 1017.1 - 0.0 - - - - - - -
29/04:30am 10.8 NE 7 9 1017.0 - 0.0 - - - - - - -
29/04:00am 11.3 NE 8 13 1016.8 - 0.0 - - - - - - -
29/03:30am 11.6 NE 8 11 1016.8 - 0.0 - - - - - - -
29/03:00am 11.7 NE 8 11 1016.9 - 0.0 - - - - - - -
29/02:30am 11.8 NE 8 10 1017.0 - 0.0 - - - - - - -
29/02:00am 11.8 NE 8 10 1017.3 - 0.0 - - - - - - -
29/01:30am 12.1 NE 7 10 1017.4 - 0.0 - - - - - - -
29/01:00am 11.9 NE 7 9 1017.2 - 0.0 - - - - - - -
29/12:30am 11.8 NE 6 9 1017.2 - 0.0 - - - - - - -
29/12:00am 11.5 NE 6 7 1017.1 - 0.0 - - - - - - -
 
Date/Time
CST
Temp
°C
Wind Pressure Rain since
9am
mm
Weather Cloud Vis
km
Sea
Height
m
Swell
Dir  Spd
kts
Gust
kts
hPa Trend Height
m
Period
s
Dir
28/11:30pm 12.1 NNE 7 11 1016.8 - 0.0 - - - - - - -
28/11:00pm 11.9 NE 7 10 1016.7 - 0.0 - - - - - - -
28/10:30pm 12.1 NE 7 9 1016.7 - 0.0 - - - - - - -
28/10:00pm 11.3 NE 6 8 1016.9 - 0.0 - - - - - - -
28/09:30pm 11.9 NE 6 8 1017.2 - 0.0 - - - - - - -
28/09:00pm 11.6 NE 6 8 1017.2 - 0.0 - - - - - - -
28/08:30pm 11.6 NE 6 8 1017.1 - 0.0 - - - - - - -
28/08:00pm 11.9 ENE 5 6 1016.8 - 0.0 - - - - - - -
28/07:30pm 12.9 NE 6 7 1016.5 - 0.0 - - - - - - -
28/07:00pm 13.3 ENE 6 9 1016.3 - 0.0 - - - - - - -
28/06:30pm 13.5 ENE 6 8 1016.1 - 0.0 - - - - - - -
28/06:00pm 14.1 ENE 6 8 1015.8 - 0.0 - - - - - - -
28/05:30pm 15.6 ENE 5 7 1015.4 - 0.0 - - - - - - -
28/05:00pm 17.7 ENE 8 11 1015.2 - 0.0 - - - - - - -
28/04:30pm 18.8 NE 10 13 1015.1 - 0.0 - - - - - - -
28/04:00pm 19.3 NE 10 15 1014.8 - 0.0 - - - - - - -
28/03:30pm 19.6 NE 11 15 1015.1 - 0.0 - - - - - - -
28/03:00pm 20.1 NE 11 15 1015.3 - 0.0 - - - - - - -
28/02:30pm 19.0 NNE 9 12 1015.7 - 0.0 - - - - - - -
28/02:00pm 20.0 NNE 10 15 1015.9 - 0.0 - - - - - - -
28/01:30pm 19.8 NNE 10 13 1016.2 - 0.0 - - - - - - -
28/01:00pm 19.6 N 11 15 1016.6 - 0.0 - - - - - - -
28/12:30pm 19.8 N 12 17 1017.0 - 0.0 - - - - - - -
28/12:00pm 19.3 N 11 15 1017.1 - 0.0 - - - - - - -
28/11:30am 19.2 NNW 11 15 1017.4 - 0.0 - - - - - - -
28/11:00am 18.0 NNW 12 16 1017.6 - 0.0 - - - - - - -
28/10:30am 17.3 N 13 18 1017.7 - 0.0 - - - - - - -
28/10:00am 17.3 N 9 12 1017.9 - 0.0 - - - - - - -
28/09:30am 15.1 N 11 15 1018.2 - 0.0 - - - - - - -
28/09:00am 13.7 N 11 14 1018.1 - 0.0 - - - - - - -
28/08:30am 13.2 N 10 15 1018.2 - 0.0 - - - - - - -
28/08:00am 11.3 N 8 11 1018.2 - 0.0 - - - - - - -
28/07:30am 8.9 N 4 5 1018.1 - 0.0 - - - - - - -
28/07:00am 8.1 N 4 5 1017.9 - 0.0 - - - - - - -
28/06:30am 8.0 N 4 6 1017.6 - 0.0 - - - - - - -
28/06:00am 8.4 N 4 5 1017.4 - 0.0 - - - - - - -
28/05:30am 9.2 N 3 4 1017.2 - 0.0 - - - - - - -
28/05:00am 9.9 NNW 3 4 1017.1 - 0.0 - - - - - - -
28/04:30am 10.0 NNW 5 5 1016.9 - 0.0 - - - - - - -
28/04:00am 10.5 NNW 5 7 1016.7 - 0.0 - - - - - - -
28/03:30am 10.4 NNW 6 8 1016.7 - 0.0 - - - - - - -
28/03:00am 10.3 NNW 6 7 1016.9 - 0.0 - - - - - - -
28/02:30am 11.1 N 7 10 1017.1 - 0.0 - - - - - - -
28/02:00am 11.4 N 8 10 1017.1 - 0.0 - - - - - - -
28/01:30am 10.9 N 7 9 1017.4 - 0.0 - - - - - - -
28/01:00am 10.8 N 7 9 1017.7 - 0.0 - - - - - - -
28/12:30am 10.5 N 6 8 1017.7 - 0.0 - - - - - - -
28/12:00am 10.6 N 7 9 1017.7 - 0.0 - - - - - - -
 
Date/Time
CST
Temp
°C
Wind Pressure Rain since
9am
mm
Weather Cloud Vis
km
Sea
Height
m
Swell
Dir  Spd
kts
Gust
kts
hPa Trend Height
m
Period
s
Dir
27/11:30pm 11.3 N 9 12 1017.7 - 0.0 - - - - - - -
27/11:00pm 11.7 N 9 13 1017.7 - 0.0 - - - - - - -
27/10:30pm 11.1 N 9 11 1017.6 - 0.0 - - - - - - -
27/10:00pm 10.8 N 8 10 1017.9 - 0.0 - - - - - - -
27/09:30pm 11.3 N 8 10 1017.8 - 0.0 - - - - - - -
27/09:00pm 11.0 N 8 10 1017.9 - 0.0 - - - - - - -
27/08:30pm 11.3 N 8 11 1017.9 - 0.0 - - - - - - -
27/08:00pm 11.8 N 9 12 1017.9 - 0.0 - - - - - - -
27/07:30pm 11.8 N 9 13 1017.8 - 0.0 - - - - - - -
27/07:00pm 11.9 N 10 13 1017.4 - 0.0 - - - - - - -
27/06:30pm 11.9 N 8 12 1017.6 - 0.0 - - - - - - -
27/06:00pm 12.7 NNW 10 13 1017.4 - 0.0 - - - - - - -
27/05:30pm 12.9 NNW 11 14 1017.3 - 0.0 - - - - - - -
27/05:00pm 13.5 NNW 13 17 1017.3 - 0.0 - - - - - - -
27/04:30pm 13.7 NNW 14 19 1017.2 - 0.0 - - - - - - -
27/04:00pm 13.8 NNW 15 20 1017.0 - 0.0 - - - - - - -
27/03:30pm 14.2 NNW 15 20 1017.1 - 0.0 - - - - - - -
27/03:00pm 13.5 NNW 15 19 1017.4 - 0.0 - - - - - - -
27/02:30pm 14.4 NNW 16 21 1017.5 - 0.0 - - - - - - -
27/02:00pm 13.2 NNW 17 23 1017.6 - 0.0 - - - - - - -
27/01:30pm 13.5 NNW 16 23 1017.9 - 0.0 - - - - - - -
27/01:00pm 13.1 NNW 17 23 1018.4 - 0.0 - - - - - - -

Other Formats:

Comma delimited format used in spreadsheet applications
http://www.bom.gov.au/fwo/IDS60701/IDS60701.95816.axf

JavaScript Object Notation format (JSON) in row-major order
http://www.bom.gov.au/fwo/IDS60701/IDS60701.95816.json